PST,Max TemperatureF,Mean TemperatureF,Min TemperatureF,Max Dew PointF,MeanDew PointF,Min DewpointF,Max Humidity, Mean Humidity, Min Humidity, Max Sea Level PressureIn, Mean Sea Level PressureIn, Min Sea Level PressureIn, Max VisibilityMiles, Mean VisibilityMiles, Min VisibilityMiles, Max Wind SpeedMPH, Mean Wind SpeedMPH, Max Gust SpeedMPH,PrecipitationIn, CloudCover, Events, WindDirDegrees
2013-2-1,51,44,37,32,26,21,82,53,31,30.31,30.24,30.19,10,10,10,17,9,24,0.00,0,,116
2013-2-2,52,47,42,27,23,19,51,40,31,30.26,30.23,30.20,10,10,10,16,10,22,0.00,0,,122
2013-2-3,51,45,39,30,25,19,65,46,32,30.24,30.21,30.16,10,10,10,8,5,,0.00,0,,160
2013-2-4,50,46,39,29,25,21,62,49,33,30.15,30.06,29.95,10,10,10,18,9,28,0.00,0,,178
2013-2-5,37,34,30,34,32,30,100,94,85,30.14,29.99,29.93,10,2,0,17,10,23,0.01,6,Fog-Rain-Snow,205
2013-2-6,39,34,30,36,30,27,100,89,65,30.16,30.04,29.89,10,5,0,17,11,32,0.06,6,Fog-Snow,186
2013-2-7,32,29,26,30,27,25,100,92,80,30.04,29.94,29.88,10,2,0,14,7,24,0.06,8,Fog-Snow,192
2013-2-8,30,27,24,28,25,23,100,88,80,30.22,30.10,29.97,10,5,0,10,6,30,0.00,6,Fog-Snow,351
2013-2-9,34,29,24,29,26,23,100,92,79,30.27,30.18,30.10,10,8,0,14,8,26,0.00,6,Fog,4
2013-2-10,37,32,28,32,29,27,100,91,79,30.27,30.20,30.14,10,3,0,15,8,26,0.00,3,Fog,21
2013-2-11,34,31,28,32,30,26,100,92,81,30.42,30.31,30.17,10,2,0,15,6,22,0.00,7,Fog,11
2013-2-12,39,36,32,37,33,30,100,94,86,30.51,30.42,30.35,10,3,0,15,6,,0.00,6,Fog-Rain,22
2013-2-13,42,38,33,36,34,30,100,92,76,30.49,30.43,30.38,10,5,0,12,5,17,0.00,5,Fog,13
2013-2-14,48,40,33,37,34,31,100,81,59,30.50,30.44,30.37,10,7,0,12,7,,0.00,1,Fog,55
2013-2-15,57,49,41,34,30,28,68,51,34,30.36,30.27,30.22,10,10,10,20,12,26,0.00,0,,151
2013-2-16,46,38,28,36,29,26,96,76,46,30.23,30.19,30.16,10,10,10,14,9,25,0.00,4,,309
2013-2-17,37,32,26,29,26,24,100,84,64,30.23,30.15,30.02,10,8,0,12,6,16,0.00,3,Fog,35
2013-2-18,34,30,26,28,27,25,100,88,75,30.01,29.86,29.68,10,8,0,15,6,25,0.01,7,Fog-Snow,195
2013-2-19,30,28,26,28,27,25,100,94,88,29.97,29.71,29.54,10,2,0,16,9,31,0.42,7,Fog-Rain-Snow,195
2013-2-20,33,30,26,30,27,25,100,94,78,30.12,30.01,29.89,10,3,0,7,2,,0.08,8,Fog-Snow,317
2013-2-21,30,28,26,30,28,25,100,94,92,30.28,30.16,30.04,10,3,0,8,2,,0.04,8,Fog-Snow,282
2013-2-22,37,32,28,31,29,27,100,94,79,30.28,30.12,30.01,10,2,0,21,11,33,0.14,8,Fog-Rain-Snow,198
2013-2-23,30,27,24,29,26,23,100,94,92,30.44,30.25,30.08,10,3,0,8,3,17,0.11,8,Fog-Snow,354
2013-2-24,39,32,24,32,26,19,100,84,66,30.43,30.33,30.21,10,9,1,15,7,17,0.00,2,,133
2013-2-25,36,31,26,30,27,17,100,92,59,30.40,30.24,30.12,10,5,0,17,9,23,0.09,8,Fog-Rain-Snow,291
2013-2-26,39,32,25,28,22,14,88,65,38,30.38,30.32,30.28,10,10,10,13,8,,0.00,3,Rain,136
2013-2-27,44,39,34,39,31,17,100,76,42,30.31,30.27,30.23,10,6,0,20,10,32,0.06,7,Fog-Rain,187
2013-2-28,44,42,39,43,41,39,100,98,93,30.52,30.41,30.27,3,0,0,17,12,26,0.04,8,Fog-Rain,200